createdAt,value
2023-08-29T00:01:07.193Z,73.09
2023-08-29T00:03:40.488Z,73.31
2023-08-29T00:06:12.478Z,73.63
2023-08-29T00:08:44.446Z,73.66
2023-08-29T00:11:16.336Z,74.23
2023-08-29T00:13:48.351Z,72.94
2023-08-29T00:16:20.421Z,73.00
2023-08-29T00:18:53.484Z,73.76
2023-08-29T00:21:25.147Z,74.10
2023-08-29T00:23:57.016Z,73.95
2023-08-29T00:26:29.022Z,73.26
2023-08-29T00:29:01.004Z,73.84
2023-08-29T00:31:32.928Z,74.27
2023-08-29T00:34:06.148Z,73.85
2023-08-29T00:36:38.130Z,73.90
2023-08-29T00:39:10.071Z,73.88
2023-08-29T00:41:42.583Z,74.56
2023-08-29T00:44:14.533Z,74.54
2023-08-29T00:46:47.890Z,74.76
2023-08-29T00:49:24.744Z,74.03
2023-08-29T00:52:01.028Z,74.80
2023-08-29T00:54:35.744Z,74.69
2023-08-29T00:57:08.677Z,74.68
2023-08-29T00:59:40.653Z,75.04
2023-08-29T01:02:12.570Z,75.52
2023-08-29T01:04:45.883Z,75.45
2023-08-29T01:07:18.305Z,75.61
2023-08-29T01:09:50.219Z,75.56
2023-08-29T01:12:23.020Z,75.04
2023-08-29T01:15:05.565Z,75.98
2023-08-29T01:17:46.809Z,75.76
2023-08-29T01:20:22.926Z,75.86
2023-08-29T01:23:14.698Z,75.95
2023-08-29T01:25:58.665Z,76.31
2023-08-29T01:28:32.085Z,76.76
2023-08-29T01:31:06.096Z,76.88
2023-08-29T01:33:39.479Z,76.54
2023-08-29T01:36:11.228Z,76.65
2023-08-29T01:38:43.111Z,76.18
2023-08-29T01:41:15.012Z,76.47
2023-08-29T01:43:48.248Z,76.23
2023-08-29T01:46:20.121Z,76.18
2023-08-29T01:48:52.374Z,77.14
2023-08-29T01:51:24.464Z,77.05
2023-08-29T01:53:56.724Z,76.33
2023-08-29T01:56:36.375Z,76.66
2023-08-29T01:59:11.132Z,76.19
2023-08-29T02:01:46.128Z,76.64
2023-08-29T02:04:18.100Z,76.88
2023-08-29T02:06:52.966Z,77.91
2023-08-29T02:09:24.897Z,77.68
2023-08-29T02:11:56.687Z,77.68
2023-08-29T02:14:29.941Z,77.25
2023-08-29T02:17:01.915Z,77.20
2023-08-29T02:19:33.928Z,76.61
2023-08-29T02:22:06.064Z,77.80
2023-08-29T02:24:37.899Z,78.07
2023-08-29T02:27:10.551Z,79.11
2023-08-29T02:29:43.555Z,78.88
2023-08-29T02:32:15.975Z,77.68
2023-08-29T02:34:47.670Z,78.22
2023-08-29T02:37:19.521Z,77.88
2023-08-29T02:39:51.463Z,77.62
2023-08-29T02:42:27.469Z,77.85
2023-08-29T02:45:00.754Z,78.56
2023-08-29T02:47:34.042Z,77.85
2023-08-29T02:50:06.104Z,78.24
2023-08-29T02:52:37.963Z,77.93
2023-08-29T02:55:11.979Z,78.09
2023-08-29T02:57:43.783Z,78.78
2023-08-29T03:00:20.720Z,79.03
2023-08-29T03:02:52.756Z,78.62
2023-08-29T03:05:24.690Z,78.02
2023-08-29T03:07:56.703Z,78.71
2023-08-29T03:10:31.432Z,78.75
2023-08-29T03:13:03.940Z,78.80
2023-08-29T03:15:40.014Z,78.78
2023-08-29T03:18:11.883Z,78.54
2023-08-29T03:20:46.094Z,78.30
2023-08-29T03:23:18.101Z,78.51
2023-08-29T03:25:50.040Z,78.79
2023-08-29T03:28:21.854Z,79.11
2023-08-29T03:30:54.852Z,78.50
2023-08-29T03:33:26.805Z,79.04
2023-08-29T03:36:04.489Z,79.54
2023-08-29T03:38:39.126Z,79.59
2023-08-29T03:41:10.980Z,79.29
2023-08-29T03:43:42.696Z,80.34
2023-08-29T03:46:18.865Z,80.66
2023-08-29T03:48:50.576Z,80.17
2023-08-29T03:51:22.888Z,80.25
2023-08-29T03:53:54.491Z,80.33
2023-08-29T03:56:26.663Z,80.02
2023-08-29T03:58:58.324Z,80.07
2023-08-29T04:01:32.097Z,79.91
2023-08-29T04:04:04.635Z,80.49
2023-08-29T04:06:36.533Z,80.39
2023-08-29T04:09:09.689Z,80.22
2023-08-29T04:11:41.295Z,80.55
2023-08-29T04:14:13.159Z,81.46
2023-08-29T04:16:46.577Z,80.74
2023-08-29T04:19:18.587Z,81.14
2023-08-29T04:21:50.460Z,81.04
2023-08-29T04:24:22.296Z,80.75
2023-08-29T04:26:54.213Z,81.31
2023-08-29T04:29:26.138Z,81.12
2023-08-29T04:31:59.310Z,81.75
2023-08-29T04:34:31.027Z,81.33
2023-08-29T04:37:02.950Z,81.72
2023-08-29T04:39:37.113Z,81.91
2023-08-29T04:42:11.224Z,81.62
2023-08-29T04:44:45.211Z,81.86
2023-08-29T04:47:19.466Z,82.13
2023-08-29T04:49:51.371Z,81.99
2023-08-29T04:52:23.412Z,82.28
2023-08-29T04:54:55.389Z,81.70
2023-08-29T04:57:27.399Z,82.22
2023-08-29T04:59:59.014Z,82.16
2023-08-29T05:02:32.306Z,82.25
2023-08-29T05:05:04.619Z,82.34
2023-08-29T05:07:36.249Z,82.10
2023-08-29T05:10:09.270Z,82.92
2023-08-29T05:12:42.302Z,83.06
2023-08-29T05:15:13.701Z,82.57
2023-08-29T05:17:46.720Z,82.86
2023-08-29T05:20:18.585Z,82.75
2023-08-29T05:22:50.597Z,82.43
2023-08-29T05:25:23.045Z,83.55
2023-08-29T05:27:54.967Z,83.10
2023-08-29T05:30:26.831Z,83.50
2023-08-29T05:33:01.067Z,83.92
2023-08-29T05:35:32.998Z,83.55
2023-08-29T05:38:05.145Z,84.08
2023-08-29T05:40:36.946Z,84.01
2023-08-29T05:43:09.024Z,84.25
2023-08-29T05:45:42.805Z,84.36
2023-08-29T05:48:15.781Z,84.36
2023-08-29T05:50:50.154Z,84.37
2023-08-29T05:53:23.750Z,84.76
2023-08-29T05:55:55.680Z,84.99
2023-08-29T05:58:28.279Z,85.15
2023-08-29T06:01:00.389Z,85.38
2023-08-29T06:03:33.694Z,84.89
2023-08-29T06:06:05.791Z,84.86
2023-08-29T06:08:37.690Z,85.14
2023-08-29T06:11:10.210Z,85.42
2023-08-29T06:13:42.175Z,85.80
2023-08-29T06:16:14.279Z,86.11
2023-08-29T06:18:48.417Z,86.20
2023-08-29T06:21:20.026Z,86.13
2023-08-29T06:23:52.088Z,85.77
2023-08-29T06:26:24.071Z,86.57
2023-08-29T06:28:55.979Z,86.08
2023-08-29T06:31:27.880Z,86.17
2023-08-29T06:34:01.594Z,86.05
2023-08-29T06:36:33.970Z,86.27
2023-08-29T06:39:06.446Z,86.12
2023-08-29T06:41:38.054Z,86.53
2023-08-29T06:44:10.802Z,86.17
2023-08-29T06:46:42.895Z,86.20
2023-08-29T06:49:17.002Z,86.25
2023-08-29T06:51:48.580Z,85.71
2023-08-29T06:54:20.578Z,86.28
2023-08-29T06:56:52.513Z,86.23
2023-08-29T06:59:24.429Z,86.04
2023-08-29T07:01:56.273Z,86.18
2023-08-29T07:04:29.465Z,86.46
2023-08-29T07:07:01.418Z,86.63
2023-08-29T07:09:33.335Z,86.62
2023-08-29T07:12:05.336Z,86.61
2023-08-29T07:14:37.559Z,86.96
2023-08-29T07:17:10.870Z,86.48
2023-08-29T07:19:44.260Z,86.82
2023-08-29T07:22:24.016Z,86.49
2023-08-29T07:24:56.748Z,86.76
2023-08-29T07:27:28.622Z,85.98
2023-08-29T07:30:00.576Z,86.27
2023-08-29T07:32:32.498Z,85.87
2023-08-29T07:35:05.596Z,85.91
2023-08-29T07:37:38.409Z,86.17
2023-08-29T07:40:12.831Z,86.71
2023-08-29T07:42:44.735Z,86.24
2023-08-29T07:45:16.795Z,86.67
2023-08-29T07:47:48.713Z,86.03
2023-08-29T07:50:21.734Z,86.47
2023-08-29T07:52:53.748Z,86.08
2023-08-29T07:55:27.191Z,85.41
2023-08-29T07:58:00.501Z,85.60
2023-08-29T08:00:32.097Z,85.83
2023-08-29T08:03:04.137Z,85.13
2023-08-29T08:05:37.232Z,85.35
2023-08-29T08:08:11.512Z,84.99
2023-08-29T08:10:44.893Z,84.86
2023-08-29T08:13:16.777Z,84.70
2023-08-29T08:15:48.666Z,85.42
2023-08-29T08:18:20.630Z,84.87
2023-08-29T08:20:53.821Z,85.27
2023-08-29T08:23:25.662Z,84.56
2023-08-29T08:25:57.552Z,85.66
2023-08-29T08:28:29.488Z,84.86
2023-08-29T08:31:01.362Z,84.29
2023-08-29T08:33:33.235Z,84.02
2023-08-29T08:36:06.618Z,84.44
2023-08-29T08:38:38.578Z,84.32
2023-08-29T08:41:11.861Z,84.45
2023-08-29T08:43:45.552Z,83.97
2023-08-29T08:46:18.330Z,83.54
2023-08-29T08:48:50.795Z,83.06
2023-08-29T08:51:28.005Z,82.74
2023-08-29T08:53:59.844Z,82.86
2023-08-29T08:56:33.521Z,82.62
2023-08-29T08:59:06.998Z,82.52
2023-08-29T09:01:39.371Z,82.28
2023-08-29T09:04:11.447Z,82.53
2023-08-29T09:06:44.723Z,81.79
2023-08-29T09:09:25.195Z,81.64
2023-08-29T09:11:59.086Z,80.59
2023-08-29T09:14:33.758Z,81.04
2023-08-29T09:17:09.960Z,80.17
2023-08-29T09:19:42.759Z,79.67
2023-08-29T09:22:15.921Z,79.79
2023-08-29T09:24:47.793Z,78.60
2023-08-29T09:27:19.711Z,80.75
2023-08-29T09:29:51.560Z,78.84
2023-08-29T09:32:24.128Z,78.34
2023-08-29T09:35:03.709Z,78.06
2023-08-29T09:37:41.061Z,77.98
2023-08-29T09:40:35.654Z,78.84
2023-08-29T09:43:10.607Z,77.91
2023-08-29T09:45:42.751Z,76.53
2023-08-29T09:48:15.023Z,76.38
2023-08-29T09:50:48.949Z,74.75
2023-08-29T09:53:23.033Z,76.25
2023-08-29T09:56:06.499Z,75.19
2023-08-29T09:58:41.656Z,76.58
2023-08-29T10:01:15.488Z,78.08
2023-08-29T10:03:51.092Z,74.78
2023-08-29T10:06:26.042Z,74.61
2023-08-29T10:09:04.579Z,75.38
2023-08-29T10:11:52.469Z,73.80
2023-08-29T10:14:25.555Z,73.50
2023-08-29T10:16:59.878Z,74.41
2023-08-29T10:19:33.571Z,73.08
2023-08-29T10:22:08.505Z,74.20
2023-08-29T10:24:45.185Z,72.30
2023-08-29T10:27:17.660Z,72.50
2023-08-29T10:29:49.635Z,72.11
2023-08-29T10:32:24.244Z,72.03
2023-08-29T10:34:58.801Z,70.91
2023-08-29T10:37:32.713Z,70.44
2023-08-29T10:40:16.742Z,70.94
2023-08-29T10:42:58.455Z,71.36
2023-08-29T10:45:48.001Z,70.04
2023-08-29T10:48:25.226Z,70.70
2023-08-29T10:51:14.575Z,68.00
2023-08-29T10:53:53.473Z,68.22
2023-08-29T10:56:29.253Z,68.53
2023-08-29T10:59:01.512Z,69.29
2023-08-29T11:01:34.898Z,68.81
2023-08-29T11:04:15.575Z,68.56
2023-08-29T11:06:58.089Z,68.23
2023-08-29T11:09:30.394Z,67.69
2023-08-29T11:12:14.110Z,66.55
2023-08-29T11:14:56.855Z,66.73
2023-08-29T11:17:29.678Z,67.51
2023-08-29T11:20:03.752Z,66.28
2023-08-29T11:22:35.406Z,66.52
2023-08-29T11:25:09.130Z,64.09
2023-08-29T11:27:44.132Z,64.29
2023-08-29T11:30:31.348Z,66.05
2023-08-29T11:33:11.266Z,64.11
2023-08-29T11:35:43.492Z,65.58
2023-08-29T11:38:15.349Z,66.30
2023-08-29T11:40:52.368Z,64.05
2023-08-29T11:44:16.578Z,63.73
2023-08-29T11:46:38.024Z,64.57
2023-08-29T11:49:18.179Z,62.37
2023-08-29T11:51:50.106Z,59.60
2023-08-29T11:54:43.187Z,60.77
2023-08-29T11:57:17.913Z,59.46
2023-08-29T11:59:53.154Z,60.67
2023-08-29T12:02:26.084Z,61.86
2023-08-29T12:04:59.966Z,62.23
2023-08-29T12:07:36.454Z,62.61
2023-08-29T12:10:17.951Z,60.86
2023-08-29T12:12:50.297Z,59.83
2023-08-29T12:15:43.897Z,60.83
2023-08-29T12:18:26.942Z,60.50
2023-08-29T12:21:13.540Z,59.28
2023-08-29T12:23:45.957Z,59.55
2023-08-29T12:26:18.306Z,55.81
2023-08-29T12:28:50.235Z,58.31
2023-08-29T12:31:23.427Z,58.54
2023-08-29T12:33:55.324Z,56.31
2023-08-29T12:36:27.224Z,55.91
2023-08-29T12:38:59.121Z,54.18
2023-08-29T12:41:31.999Z,56.52
2023-08-29T12:44:04.209Z,52.59
2023-08-29T12:46:37.282Z,55.54
2023-08-29T12:49:09.077Z,54.36
2023-08-29T12:51:40.939Z,55.08
2023-08-29T12:54:12.613Z,54.90
2023-08-29T12:56:45.048Z,54.13
2023-08-29T12:59:16.890Z,52.57
2023-08-29T13:01:50.146Z,54.37
2023-08-29T13:04:22.072Z,51.13
2023-08-29T13:06:54.587Z,52.53
2023-08-29T13:09:36.678Z,53.34
2023-08-29T13:12:10.699Z,53.89
2023-08-29T13:14:42.954Z,52.88
2023-08-29T13:17:17.506Z,53.90
2023-08-29T13:19:49.358Z,51.58
2023-08-29T13:22:23.392Z,50.21
2023-08-29T13:24:56.564Z,50.17
2023-08-29T13:27:30.038Z,50.29
2023-08-29T13:30:02.004Z,47.94
2023-08-29T13:32:36.708Z,50.83
2023-08-29T13:35:09.747Z,50.97
2023-08-29T13:37:41.616Z,50.98
2023-08-29T13:40:15.388Z,51.16
2023-08-29T13:42:47.345Z,53.21
2023-08-29T13:45:19.828Z,53.24
2023-08-29T13:47:54.049Z,53.76
2023-08-29T13:50:27.351Z,51.57
2023-08-29T13:52:59.535Z,51.81
2023-08-29T13:55:31.885Z,50.82
2023-08-29T13:58:04.622Z,49.85
2023-08-29T14:00:36.925Z,47.78
2023-08-29T14:03:16.188Z,47.68
2023-08-29T14:05:55.466Z,47.01
2023-08-29T14:08:27.847Z,48.72
2023-08-29T14:11:08.141Z,47.30
2023-08-29T14:13:40.165Z,48.63
2023-08-29T14:16:12.145Z,45.76
2023-08-29T14:18:47.069Z,46.86
2023-08-29T14:21:21.828Z,45.59
2023-08-29T14:23:53.682Z,46.48
2023-08-29T14:26:25.537Z,46.42
2023-08-29T14:28:55.459Z,45.47
2023-08-29T14:31:28.814Z,47.63
2023-08-29T14:34:02.039Z,48.19
2023-08-29T14:36:35.470Z,48.65
2023-08-29T14:39:07.310Z,48.85
2023-08-29T14:41:39.300Z,48.89
2023-08-29T14:44:11.172Z,48.85
2023-08-29T14:46:43.124Z,48.40
2023-08-29T14:49:16.695Z,48.25
2023-08-29T14:51:48.901Z,47.41
2023-08-29T14:54:20.655Z,48.24
2023-08-29T14:56:52.539Z,46.89
2023-08-29T14:59:24.544Z,47.15
2023-08-29T15:01:56.394Z,44.37
2023-08-29T15:04:29.367Z,42.84
2023-08-29T15:07:01.537Z,43.05
2023-08-29T15:09:33.706Z,42.76
2023-08-29T15:12:06.529Z,42.72
2023-08-29T15:14:38.399Z,43.50
2023-08-29T15:17:10.107Z,44.72
2023-08-29T15:19:43.353Z,43.37
2023-08-29T15:22:15.295Z,46.34
2023-08-29T15:24:47.165Z,45.52
2023-08-29T15:27:19.085Z,45.50
2023-08-29T15:29:51.138Z,43.96
2023-08-29T15:32:23.088Z,43.38
2023-08-29T15:34:56.408Z,44.23
2023-08-29T15:37:28.270Z,43.51
2023-08-29T15:40:00.327Z,43.21
2023-08-29T15:42:33.793Z,43.47
2023-08-29T15:45:05.590Z,42.29
2023-08-29T15:47:37.595Z,42.75
2023-08-29T15:50:15.102Z,42.40
2023-08-29T15:52:47.027Z,42.74
2023-08-29T15:55:20.041Z,42.96
2023-08-29T15:57:52.134Z,40.51
2023-08-29T16:00:24.094Z,41.74
2023-08-29T16:02:57.137Z,43.74
2023-08-29T16:05:30.831Z,44.26
2023-08-29T16:08:02.883Z,44.12
2023-08-29T16:10:34.792Z,43.76
2023-08-29T16:13:06.804Z,42.96
2023-08-29T16:15:38.742Z,43.10
2023-08-29T16:18:10.920Z,43.41
2023-08-29T16:20:46.714Z,42.95
2023-08-29T16:23:18.583Z,42.61
2023-08-29T16:25:50.976Z,44.40
2023-08-29T16:28:24.271Z,45.81
2023-08-29T16:30:56.325Z,45.35
2023-08-29T16:33:28.217Z,45.36
2023-08-29T16:36:01.946Z,46.06
2023-08-29T16:38:34.092Z,46.49
2023-08-29T16:41:06.035Z,45.66
2023-08-29T16:43:37.969Z,45.94
2023-08-29T16:46:12.595Z,45.93
2023-08-29T16:48:45.932Z,46.83
2023-08-29T16:51:19.214Z,47.00
2023-08-29T16:53:51.096Z,46.83
2023-08-29T16:56:22.978Z,47.38
2023-08-29T16:58:54.970Z,47.53
2023-08-29T17:01:26.853Z,47.30
2023-08-29T17:03:58.789Z,47.46
2023-08-29T17:06:32.067Z,48.76
2023-08-29T17:09:04.628Z,48.54
2023-08-29T17:11:36.575Z,48.84
2023-08-29T17:14:08.531Z,48.96
2023-08-29T17:16:41.506Z,49.43
2023-08-29T17:19:14.090Z,48.48
2023-08-29T17:21:48.007Z,48.71
2023-08-29T17:24:19.854Z,50.24
2023-08-29T17:26:51.713Z,50.34
2023-08-29T17:29:24.379Z,51.23
2023-08-29T17:31:56.586Z,50.94
2023-08-29T17:34:28.607Z,51.05
2023-08-29T17:37:02.668Z,50.20
2023-08-29T17:39:35.539Z,51.81
2023-08-29T17:42:07.371Z,51.93
2023-08-29T17:44:39.235Z,50.20
2023-08-29T17:47:11.224Z,51.17
2023-08-29T17:49:43.771Z,52.07
2023-08-29T17:52:17.996Z,52.22
2023-08-29T17:54:51.334Z,52.81
2023-08-29T17:57:23.335Z,52.26
2023-08-29T17:59:55.766Z,53.21
2023-08-29T18:02:28.246Z,53.39
2023-08-29T18:04:59.854Z,54.21
2023-08-29T18:07:33.090Z,54.22
2023-08-29T18:10:13.878Z,54.38
2023-08-29T18:12:45.889Z,53.85
2023-08-29T18:15:18.496Z,54.64
2023-08-29T18:17:50.249Z,54.53
2023-08-29T18:20:22.384Z,55.05
2023-08-29T18:22:56.778Z,55.13
2023-08-29T18:25:30.934Z,55.17
2023-08-29T18:28:02.900Z,55.43
2023-08-29T18:30:34.973Z,56.17
2023-08-29T18:33:08.935Z,55.35
2023-08-29T18:35:44.393Z,55.99
2023-08-29T18:38:18.228Z,55.88
2023-08-29T18:40:50.117Z,56.70
2023-08-29T18:43:22.440Z,56.29
2023-08-29T18:45:54.225Z,56.00
2023-08-29T18:48:26.689Z,56.53
2023-08-29T18:50:58.596Z,56.81
2023-08-29T18:53:31.844Z,56.52
2023-08-29T18:56:04.145Z,56.33
2023-08-29T18:58:37.743Z,56.47
2023-08-29T19:01:13.356Z,57.63
2023-08-29T19:03:46.472Z,57.67
2023-08-29T19:06:21.372Z,58.05
2023-08-29T19:08:55.384Z,57.70
2023-08-29T19:11:28.343Z,57.77
2023-08-29T19:14:00.058Z,58.33
2023-08-29T19:16:31.996Z,58.21
2023-08-29T19:19:05.161Z,58.31
2023-08-29T19:21:37.418Z,58.47
2023-08-29T19:24:11.878Z,58.40
2023-08-29T19:26:43.739Z,58.39
2023-08-29T19:29:17.078Z,58.75
2023-08-29T19:31:48.698Z,58.67
2023-08-29T19:34:22.178Z,59.32
2023-08-29T19:36:55.475Z,59.40
2023-08-29T19:39:30.336Z,59.51
2023-08-29T19:42:03.694Z,59.84
2023-08-29T19:44:35.667Z,59.84
2023-08-29T19:47:07.728Z,60.23
2023-08-29T19:49:47.338Z,60.78
2023-08-29T19:52:19.631Z,60.51
2023-08-29T19:54:52.672Z,60.13
2023-08-29T19:57:24.593Z,60.17
2023-08-29T19:59:56.961Z,61.02
2023-08-29T20:02:29.043Z,61.28
2023-08-29T20:05:02.143Z,61.33
2023-08-29T20:07:34.669Z,61.04
2023-08-29T20:10:07.784Z,62.19
2023-08-29T20:12:41.588Z,61.95
2023-08-29T20:15:14.700Z,61.83
2023-08-29T20:17:47.445Z,62.44
2023-08-29T20:20:19.234Z,62.66
2023-08-29T20:22:51.173Z,62.18
2023-08-29T20:25:24.529Z,63.06
2023-08-29T20:27:56.482Z,62.88
2023-08-29T20:30:28.365Z,63.11
2023-08-29T20:33:00.274Z,63.87
2023-08-29T20:35:32.217Z,64.50
2023-08-29T20:38:06.171Z,64.61
2023-08-29T20:40:42.346Z,64.27
2023-08-29T20:43:14.005Z,64.50
2023-08-29T20:45:48.327Z,64.45
2023-08-29T20:48:20.374Z,64.23
2023-08-29T20:50:55.087Z,64.67
2023-08-29T20:53:31.608Z,65.49
2023-08-29T20:56:05.053Z,65.19
2023-08-29T20:58:36.810Z,65.68
2023-08-29T21:01:08.770Z,65.76
2023-08-29T21:03:41.640Z,65.87
2023-08-29T21:06:13.510Z,65.81
2023-08-29T21:08:45.361Z,66.04
2023-08-29T21:11:18.345Z,65.97
2023-08-29T21:13:51.742Z,66.61
2023-08-29T21:16:23.647Z,66.52
2023-08-29T21:18:55.611Z,65.59
2023-08-29T21:21:27.494Z,65.70
2023-08-29T21:23:59.580Z,66.33
2023-08-29T21:26:32.548Z,66.32
2023-08-29T21:29:04.445Z,66.30
2023-08-29T21:31:36.379Z,66.71
2023-08-29T21:34:08.345Z,67.01
2023-08-29T21:36:40.689Z,67.15
2023-08-29T21:39:14.055Z,67.60
2023-08-29T21:41:47.037Z,66.57
2023-08-29T21:44:19.062Z,67.04
2023-08-29T21:46:50.921Z,67.80
2023-08-29T21:49:22.838Z,67.84
2023-08-29T21:51:54.739Z,67.65
2023-08-29T21:54:26.721Z,67.97
2023-08-29T21:56:59.637Z,67.75
2023-08-29T21:59:31.509Z,68.07
2023-08-29T22:02:03.389Z,67.65
2023-08-29T22:04:35.393Z,67.73
2023-08-29T22:07:07.345Z,68.16
2023-08-29T22:09:39.193Z,68.03
2023-08-29T22:12:12.800Z,68.27
2023-08-29T22:14:44.737Z,68.06
2023-08-29T22:17:16.716Z,67.96
2023-08-29T22:19:48.558Z,68.69
2023-08-29T22:22:20.579Z,68.08
2023-08-29T22:24:52.328Z,68.61
2023-08-29T22:27:25.336Z,68.59
2023-08-29T22:29:57.395Z,68.00
2023-08-29T22:32:29.542Z,68.33
2023-08-29T22:35:03.035Z,68.42
2023-08-29T22:37:35.106Z,68.54
2023-08-29T22:40:08.197Z,68.67
2023-08-29T22:42:41.187Z,68.96
2023-08-29T22:45:14.453Z,68.43
2023-08-29T22:47:46.705Z,69.33
2023-08-29T22:50:18.649Z,68.98
2023-08-29T22:52:50.612Z,69.81
2023-08-29T22:55:25.197Z,69.53
2023-08-29T22:58:00.135Z,69.10
2023-08-29T23:00:32.840Z,69.37
2023-08-29T23:03:05.776Z,69.54
2023-08-29T23:05:43.173Z,70.50
2023-08-29T23:08:15.444Z,70.80
2023-08-29T23:10:47.152Z,71.02
2023-08-29T23:13:19.527Z,70.74
2023-08-29T23:15:52.731Z,70.70
2023-08-29T23:18:24.662Z,71.17
2023-08-29T23:20:56.557Z,71.45
2023-08-29T23:23:28.437Z,72.03
2023-08-29T23:26:00.757Z,71.17
2023-08-29T23:28:36.602Z,71.33
2023-08-29T23:31:08.449Z,70.95
2023-08-29T23:33:54.140Z,71.28
2023-08-29T23:36:27.128Z,72.28
2023-08-29T23:38:59.742Z,71.86
2023-08-29T23:41:31.756Z,72.38
2023-08-29T23:44:04.857Z,72.74
2023-08-29T23:46:36.798Z,73.08
2023-08-29T23:49:08.953Z,73.46
2023-08-29T23:51:40.919Z,74.23
2023-08-29T23:54:12.876Z,74.37
2023-08-29T23:56:44.729Z,74.11
2023-08-29T23:59:17.703Z,74.59
